sensor_id;sensor_type;location;lat;lon;timestamp;temperature;humidity
69009;SHT31;56065;52.472;13.380;2024-02-26T00:02:04;5.37;80.72
69009;SHT31;56065;52.472;13.380;2024-02-26T00:04:30;5.35;82.14
69009;SHT31;56065;52.472;13.380;2024-02-26T00:06:55;5.38;81.88
69009;SHT31;56065;52.472;13.380;2024-02-26T00:09:21;5.47;81.43
69009;SHT31;56065;52.472;13.380;2024-02-26T00:11:46;5.52;81.42
69009;SHT31;56065;52.472;13.380;2024-02-26T00:14:12;5.55;81.38
69009;SHT31;56065;52.472;13.380;2024-02-26T00:16:41;5.65;81.01
69009;SHT31;56065;52.472;13.380;2024-02-26T00:19:07;5.62;81.42
69009;SHT31;56065;52.472;13.380;2024-02-26T00:21:32;5.62;81.69
69009;SHT31;56065;52.472;13.380;2024-02-26T00:23:58;5.65;81.58
69009;SHT31;56065;52.472;13.380;2024-02-26T00:26:23;5.55;82.04
69009;SHT31;56065;52.472;13.380;2024-02-26T00:28:48;5.51;82.17
69009;SHT31;56065;52.472;13.380;2024-02-26T00:31:14;5.42;82.13
69009;SHT31;56065;52.472;13.380;2024-02-26T00:33:39;5.42;82.50
69009;SHT31;56065;52.472;13.380;2024-02-26T00:36:05;5.39;82.13
69009;SHT31;56065;52.472;13.380;2024-02-26T00:38:30;5.37;83.00
69009;SHT31;56065;52.472;13.380;2024-02-26T00:40:56;5.35;84.89
69009;SHT31;56065;52.472;13.380;2024-02-26T00:43:21;5.34;84.95
69009;SHT31;56065;52.472;13.380;2024-02-26T00:45:46;5.32;84.86
69009;SHT31;56065;52.472;13.380;2024-02-26T00:48:12;5.30;85.05
69009;SHT31;56065;52.472;13.380;2024-02-26T00:50:39;5.26;84.87
69009;SHT31;56065;52.472;13.380;2024-02-26T00:53:04;5.26;85.22
69009;SHT31;56065;52.472;13.380;2024-02-26T00:55:29;5.24;85.60
69009;SHT31;56065;52.472;13.380;2024-02-26T00:57:55;5.23;84.97
69009;SHT31;56065;52.472;13.380;2024-02-26T01:00:20;5.17;85.86
69009;SHT31;56065;52.472;13.380;2024-02-26T01:02:46;5.17;85.27
69009;SHT31;56065;52.472;13.380;2024-02-26T01:05:14;5.13;84.73
69009;SHT31;56065;52.472;13.380;2024-02-26T01:07:41;5.11;84.19
69009;SHT31;56065;52.472;13.380;2024-02-26T01:10:07;5.08;84.48
69009;SHT31;56065;52.472;13.380;2024-02-26T01:12:35;5.00;84.16
69009;SHT31;56065;52.472;13.380;2024-02-26T01:15:02;4.94;84.74
69009;SHT31;56065;52.472;13.380;2024-02-26T01:17:30;4.89;84.45
69009;SHT31;56065;52.472;13.380;2024-02-26T01:19:56;4.84;85.17
69009;SHT31;56065;52.472;13.380;2024-02-26T01:22:21;4.80;84.86
69009;SHT31;56065;52.472;13.380;2024-02-26T01:24:47;4.86;85.62
69009;SHT31;56065;52.472;13.380;2024-02-26T01:27:12;4.81;85.54
69009;SHT31;56065;52.472;13.380;2024-02-26T01:29:39;4.81;85.42
69009;SHT31;56065;52.472;13.380;2024-02-26T01:32:05;4.79;85.43
69009;SHT31;56065;52.472;13.380;2024-02-26T01:34:31;4.80;86.43
69009;SHT31;56065;52.472;13.380;2024-02-26T01:36:56;4.81;86.83
69009;SHT31;56065;52.472;13.380;2024-02-26T01:39:21;4.84;86.38
69009;SHT31;56065;52.472;13.380;2024-02-26T01:41:47;4.83;86.15
69009;SHT31;56065;52.472;13.380;2024-02-26T01:44:13;4.80;85.60
69009;SHT31;56065;52.472;13.380;2024-02-26T01:46:41;4.79;85.01
69009;SHT31;56065;52.472;13.380;2024-02-26T01:49:08;4.73;84.91
69009;SHT31;56065;52.472;13.380;2024-02-26T01:51:37;4.66;85.55
69009;SHT31;56065;52.472;13.380;2024-02-26T01:54:03;4.62;85.39
69009;SHT31;56065;52.472;13.380;2024-02-26T01:56:29;4.60;85.06
69009;SHT31;56065;52.472;13.380;2024-02-26T01:58:58;4.58;84.86
69009;SHT31;56065;52.472;13.380;2024-02-26T02:01:29;4.55;85.57
69009;SHT31;56065;52.472;13.380;2024-02-26T02:03:56;4.59;85.83
69009;SHT31;56065;52.472;13.380;2024-02-26T02:06:22;4.59;86.59
69009;SHT31;56065;52.472;13.380;2024-02-26T02:08:48;4.60;86.64
69009;SHT31;56065;52.472;13.380;2024-02-26T02:11:14;4.60;86.84
69009;SHT31;56065;52.472;13.380;2024-02-26T02:13:40;4.63;86.72
69009;SHT31;56065;52.472;13.380;2024-02-26T02:16:06;4.62;87.73
69009;SHT31;56065;52.472;13.380;2024-02-26T02:18:32;4.62;87.83
69009;SHT31;56065;52.472;13.380;2024-02-26T02:21:00;4.62;88.47
69009;SHT31;56065;52.472;13.380;2024-02-26T02:23:25;4.56;88.76
69009;SHT31;56065;52.472;13.380;2024-02-26T02:25:51;4.56;88.75
69009;SHT31;56065;52.472;13.380;2024-02-26T02:28:17;4.56;89.46
69009;SHT31;56065;52.472;13.380;2024-02-26T02:30:43;4.53;89.70
69009;SHT31;56065;52.472;13.380;2024-02-26T02:33:08;4.53;89.77
69009;SHT31;56065;52.472;13.380;2024-02-26T02:35:34;4.53;89.84
69009;SHT31;56065;52.472;13.380;2024-02-26T02:37:59;4.52;90.14
69009;SHT31;56065;52.472;13.380;2024-02-26T02:40:25;4.50;90.15
69009;SHT31;56065;52.472;13.380;2024-02-26T02:42:50;4.48;90.22
69009;SHT31;56065;52.472;13.380;2024-02-26T02:45:15;4.44;90.14
69009;SHT31;56065;52.472;13.380;2024-02-26T02:47:41;4.39;90.19
69009;SHT31;56065;52.472;13.380;2024-02-26T02:50:06;4.41;90.55
69009;SHT31;56065;52.472;13.380;2024-02-26T02:52:32;4.34;90.24
69009;SHT31;56065;52.472;13.380;2024-02-26T02:54:58;4.25;90.54
69009;SHT31;56065;52.472;13.380;2024-02-26T02:57:23;4.19;90.76
69009;SHT31;56065;52.472;13.380;2024-02-26T02:59:48;4.21;90.56
69009;SHT31;56065;52.472;13.380;2024-02-26T03:02:14;4.21;90.54
69009;SHT31;56065;52.472;13.380;2024-02-26T03:04:39;4.15;90.49
69009;SHT31;56065;52.472;13.380;2024-02-26T03:07:05;4.14;90.85
69009;SHT31;56065;52.472;13.380;2024-02-26T03:09:30;4.12;90.40
69009;SHT31;56065;52.472;13.380;2024-02-26T03:11:55;4.11;90.59
69009;SHT31;56065;52.472;13.380;2024-02-26T03:14:21;4.17;90.37
69009;SHT31;56065;52.472;13.380;2024-02-26T03:16:46;4.11;90.62
69009;SHT31;56065;52.472;13.380;2024-02-26T03:19:15;4.11;90.72
69009;SHT31;56065;52.472;13.380;2024-02-26T03:21:41;4.07;90.61
69009;SHT31;56065;52.472;13.380;2024-02-26T03:24:07;4.05;90.34
69009;SHT31;56065;52.472;13.380;2024-02-26T03:26:36;3.97;90.66
69009;SHT31;56065;52.472;13.380;2024-02-26T03:29:01;3.93;90.98
69009;SHT31;56065;52.472;13.380;2024-02-26T03:31:27;3.93;91.02
69009;SHT31;56065;52.472;13.380;2024-02-26T03:33:53;3.86;91.10
69009;SHT31;56065;52.472;13.380;2024-02-26T03:36:18;3.88;91.07
69009;SHT31;56065;52.472;13.380;2024-02-26T03:38:43;3.88;90.55
69009;SHT31;56065;52.472;13.380;2024-02-26T03:41:09;3.91;90.37
69009;SHT31;56065;52.472;13.380;2024-02-26T03:43:34;3.87;90.56
69009;SHT31;56065;52.472;13.380;2024-02-26T03:46:00;3.91;90.34
69009;SHT31;56065;52.472;13.380;2024-02-26T03:48:25;3.88;90.42
69009;SHT31;56065;52.472;13.380;2024-02-26T03:50:51;3.90;90.42
69009;SHT31;56065;52.472;13.380;2024-02-26T03:53:16;3.88;90.50
69009;SHT31;56065;52.472;13.380;2024-02-26T03:55:41;3.90;90.58
69009;SHT31;56065;52.472;13.380;2024-02-26T03:58:07;3.90;90.05
69009;SHT31;56065;52.472;13.380;2024-02-26T04:00:33;3.90;89.91
69009;SHT31;56065;52.472;13.380;2024-02-26T04:02:58;3.90;90.19
69009;SHT31;56065;52.472;13.380;2024-02-26T04:05:24;3.90;90.39
69009;SHT31;56065;52.472;13.380;2024-02-26T04:07:49;3.94;90.03
69009;SHT31;56065;52.472;13.380;2024-02-26T04:10:14;3.93;89.78
69009;SHT31;56065;52.472;13.380;2024-02-26T04:12:40;3.95;89.81
69009;SHT31;56065;52.472;13.380;2024-02-26T04:15:07;3.94;89.95
69009;SHT31;56065;52.472;13.380;2024-02-26T04:17:33;3.99;89.73
69009;SHT31;56065;52.472;13.380;2024-02-26T04:19:58;3.97;89.98
69009;SHT31;56065;52.472;13.380;2024-02-26T04:22:24;3.99;89.67
69009;SHT31;56065;52.472;13.380;2024-02-26T04:24:49;4.01;89.69
69009;SHT31;56065;52.472;13.380;2024-02-26T04:27:14;4.02;89.46
69009;SHT31;56065;52.472;13.380;2024-02-26T04:29:40;4.01;89.32
69009;SHT31;56065;52.472;13.380;2024-02-26T04:32:05;3.99;89.33
69009;SHT31;56065;52.472;13.380;2024-02-26T04:34:31;4.01;89.77
69009;SHT31;56065;52.472;13.380;2024-02-26T04:36:56;4.04;89.33
69009;SHT31;56065;52.472;13.380;2024-02-26T04:39:21;4.04;89.14
69009;SHT31;56065;52.472;13.380;2024-02-26T04:41:47;4.02;89.54
69009;SHT31;56065;52.472;13.380;2024-02-26T04:44:12;3.98;89.40
69009;SHT31;56065;52.472;13.380;2024-02-26T04:46:37;3.97;89.57
69009;SHT31;56065;52.472;13.380;2024-02-26T04:49:03;3.98;89.14
69009;SHT31;56065;52.472;13.380;2024-02-26T04:51:28;3.99;89.42
69009;SHT31;56065;52.472;13.380;2024-02-26T04:53:53;4.02;89.39
69009;SHT31;56065;52.472;13.380;2024-02-26T04:56:21;4.02;89.32
69009;SHT31;56065;52.472;13.380;2024-02-26T04:58:46;4.05;89.60
69009;SHT31;56065;52.472;13.380;2024-02-26T05:01:11;4.05;89.18
69009;SHT31;56065;52.472;13.380;2024-02-26T05:03:37;4.07;89.34
69009;SHT31;56065;52.472;13.380;2024-02-26T05:06:02;4.07;89.61
69009;SHT31;56065;52.472;13.380;2024-02-26T05:08:28;4.09;89.32
69009;SHT31;56065;52.472;13.380;2024-02-26T05:10:56;4.08;89.59
69009;SHT31;56065;52.472;13.380;2024-02-26T05:13:21;4.07;89.57
69009;SHT31;56065;52.472;13.380;2024-02-26T05:15:47;4.08;89.29
69009;SHT31;56065;52.472;13.380;2024-02-26T05:18:14;4.14;89.39
69009;SHT31;56065;52.472;13.380;2024-02-26T05:20:40;4.15;89.15
69009;SHT31;56065;52.472;13.380;2024-02-26T05:23:05;4.12;89.29
69009;SHT31;56065;52.472;13.380;2024-02-26T05:25:31;4.12;89.08
69009;SHT31;56065;52.472;13.380;2024-02-26T05:27:56;4.12;89.17
69009;SHT31;56065;52.472;13.380;2024-02-26T05:30:21;4.15;88.84
69009;SHT31;56065;52.472;13.380;2024-02-26T05:32:47;4.14;88.87
69009;SHT31;56065;52.472;13.380;2024-02-26T05:35:12;4.14;89.13
69009;SHT31;56065;52.472;13.380;2024-02-26T05:37:38;4.12;88.80
69009;SHT31;56065;52.472;13.380;2024-02-26T05:40:04;4.11;89.04
69009;SHT31;56065;52.472;13.380;2024-02-26T05:42:30;4.14;89.03
69009;SHT31;56065;52.472;13.380;2024-02-26T05:44:55;4.09;89.03
69009;SHT31;56065;52.472;13.380;2024-02-26T05:47:20;4.11;88.86
69009;SHT31;56065;52.472;13.380;2024-02-26T05:49:46;4.09;88.93
69009;SHT31;56065;52.472;13.380;2024-02-26T05:52:11;4.08;88.97
69009;SHT31;56065;52.472;13.380;2024-02-26T05:54:36;4.09;89.02
69009;SHT31;56065;52.472;13.380;2024-02-26T05:57:02;4.11;89.20
69009;SHT31;56065;52.472;13.380;2024-02-26T05:59:27;4.09;89.32
69009;SHT31;56065;52.472;13.380;2024-02-26T06:01:53;4.12;89.44
69009;SHT31;56065;52.472;13.380;2024-02-26T06:04:18;4.15;89.28
69009;SHT31;56065;52.472;13.380;2024-02-26T06:06:44;4.18;89.68
69009;SHT31;56065;52.472;13.380;2024-02-26T06:09:10;4.25;89.84
69009;SHT31;56065;52.472;13.380;2024-02-26T06:11:36;4.28;90.12
69009;SHT31;56065;52.472;13.380;2024-02-26T06:14:02;4.36;89.98
69009;SHT31;56065;52.472;13.380;2024-02-26T06:16:27;4.42;89.79
69009;SHT31;56065;52.472;13.380;2024-02-26T06:18:53;4.46;89.70
69009;SHT31;56065;52.472;13.380;2024-02-26T06:21:18;4.56;89.65
69009;SHT31;56065;52.472;13.380;2024-02-26T06:23:43;4.66;89.60
69009;SHT31;56065;52.472;13.380;2024-02-26T06:26:09;4.77;89.68
69009;SHT31;56065;52.472;13.380;2024-02-26T06:28:35;4.94;89.82
69009;SHT31;56065;52.472;13.380;2024-02-26T06:31:01;5.16;89.41
69009;SHT31;56065;52.472;13.380;2024-02-26T06:33:27;5.37;89.04
69009;SHT31;56065;52.472;13.380;2024-02-26T06:35:52;5.72;88.73
69009;SHT31;56065;52.472;13.380;2024-02-26T06:38:17;5.93;87.96
69009;SHT31;56065;52.472;13.380;2024-02-26T06:40:44;6.00;87.51
69009;SHT31;56065;52.472;13.380;2024-02-26T06:43:09;5.99;87.41
69009;SHT31;56065;52.472;13.380;2024-02-26T06:45:35;5.99;87.37
69009;SHT31;56065;52.472;13.380;2024-02-26T06:48:00;6.02;87.44
69009;SHT31;56065;52.472;13.380;2024-02-26T06:50:26;6.10;87.36
69009;SHT31;56065;52.472;13.380;2024-02-26T06:52:51;6.10;87.23
69009;SHT31;56065;52.472;13.380;2024-02-26T06:55:16;6.19;87.27
69009;SHT31;56065;52.472;13.380;2024-02-26T06:57:42;6.50;87.18
69009;SHT31;56065;52.472;13.380;2024-02-26T07:00:08;6.61;86.55
69009;SHT31;56065;52.472;13.380;2024-02-26T07:02:33;6.63;86.42
69009;SHT31;56065;52.472;13.380;2024-02-26T07:04:59;6.67;86.35
69009;SHT31;56065;52.472;13.380;2024-02-26T07:07:24;6.67;86.22
69009;SHT31;56065;52.472;13.380;2024-02-26T07:09:50;6.78;86.09
69009;SHT31;56065;52.472;13.380;2024-02-26T07:12:15;6.88;85.95
69009;SHT31;56065;52.472;13.380;2024-02-26T07:14:41;7.19;85.60
69009;SHT31;56065;52.472;13.380;2024-02-26T07:17:07;7.44;84.75
69009;SHT31;56065;52.472;13.380;2024-02-26T07:19:33;7.59;84.37
69009;SHT31;56065;52.472;13.380;2024-02-26T07:21:59;8.11;83.77
69009;SHT31;56065;52.472;13.380;2024-02-26T07:24:26;8.53;83.05
69009;SHT31;56065;52.472;13.380;2024-02-26T07:26:52;8.93;81.67
69009;SHT31;56065;52.472;13.380;2024-02-26T07:29:19;9.31;80.81
69009;SHT31;56065;52.472;13.380;2024-02-26T07:31:45;9.81;80.10
69009;SHT31;56065;52.472;13.380;2024-02-26T07:34:10;10.37;78.57
69009;SHT31;56065;52.472;13.380;2024-02-26T07:36:35;11.01;77.47
69009;SHT31;56065;52.472;13.380;2024-02-26T07:39:01;11.40;76.86
69009;SHT31;56065;52.472;13.380;2024-02-26T07:41:26;11.53;75.57
69009;SHT31;56065;52.472;13.380;2024-02-26T07:43:52;11.64;75.18
69009;SHT31;56065;52.472;13.380;2024-02-26T07:46:17;11.84;74.44
69009;SHT31;56065;52.472;13.380;2024-02-26T07:48:43;12.34;74.21
69009;SHT31;56065;52.472;13.380;2024-02-26T07:51:08;12.65;73.04
69009;SHT31;56065;52.472;13.380;2024-02-26T07:53:34;12.60;72.42
69009;SHT31;56065;52.472;13.380;2024-02-26T07:55:59;12.32;72.35
69009;SHT31;56065;52.472;13.380;2024-02-26T07:58:24;12.22;73.46
69009;SHT31;56065;52.472;13.380;2024-02-26T08:00:50;12.11;73.19
69009;SHT31;56065;52.472;13.380;2024-02-26T08:03:15;11.67;73.31
69009;SHT31;56065;52.472;13.380;2024-02-26T08:05:41;11.39;73.96
69009;SHT31;56065;52.472;13.380;2024-02-26T08:08:08;11.13;74.35
69009;SHT31;56065;52.472;13.380;2024-02-26T08:10:33;10.92;74.98
69009;SHT31;56065;52.472;13.380;2024-02-26T08:12:58;10.78;75.45
69009;SHT31;56065;52.472;13.380;2024-02-26T08:15:34;10.79;75.88
69009;SHT31;56065;52.472;13.380;2024-02-26T08:18:00;10.89;76.00
69009;SHT31;56065;52.472;13.380;2024-02-26T08:20:29;10.98;75.82
69009;SHT31;56065;52.472;13.380;2024-02-26T08:22:55;11.22;75.34
69009;SHT31;56065;52.472;13.380;2024-02-26T08:25:21;11.70;74.98
69009;SHT31;56065;52.472;13.380;2024-02-26T08:27:46;12.34;73.76
69009;SHT31;56065;52.472;13.380;2024-02-26T08:30:13;13.27;71.75
69009;SHT31;56065;52.472;13.380;2024-02-26T08:32:42;14.70;69.90
69009;SHT31;56065;52.472;13.380;2024-02-26T08:35:07;15.73;66.78
69009;SHT31;56065;52.472;13.380;2024-02-26T08:37:33;16.41;64.88
69009;SHT31;56065;52.472;13.380;2024-02-26T08:39:58;16.82;64.28
69009;SHT31;56065;52.472;13.380;2024-02-26T08:42:24;17.19;63.98
69009;SHT31;56065;52.472;13.380;2024-02-26T08:44:49;17.61;62.30
69009;SHT31;56065;52.472;13.380;2024-02-26T08:47:14;17.95;61.20
69009;SHT31;56065;52.472;13.380;2024-02-26T08:49:44;18.90;60.87
69009;SHT31;56065;52.472;13.380;2024-02-26T08:52:10;19.28;58.64
69009;SHT31;56065;52.472;13.380;2024-02-26T08:54:35;19.69;58.53
69009;SHT31;56065;52.472;13.380;2024-02-26T08:57:00;20.57;57.75
69009;SHT31;56065;52.472;13.380;2024-02-26T08:59:26;21.07;56.29
69009;SHT31;56065;52.472;13.380;2024-02-26T09:01:51;21.60;56.17
69009;SHT31;56065;52.472;13.380;2024-02-26T09:04:16;21.97;54.38
69009;SHT31;56065;52.472;13.380;2024-02-26T09:06:42;21.88;54.30
69009;SHT31;56065;52.472;13.380;2024-02-26T09:09:07;21.57;54.84
69009;SHT31;56065;52.472;13.380;2024-02-26T09:11:32;21.58;54.96
69009;SHT31;56065;52.472;13.380;2024-02-26T09:13:59;21.53;55.08
69009;SHT31;56065;52.472;13.380;2024-02-26T09:16:24;20.96;55.27
69009;SHT31;56065;52.472;13.380;2024-02-26T09:18:50;19.96;56.55
69009;SHT31;56065;52.472;13.380;2024-02-26T09:21:15;19.21;57.22
69009;SHT31;56065;52.472;13.380;2024-02-26T09:23:43;18.88;58.57
69009;SHT31;56065;52.472;13.380;2024-02-26T09:26:09;18.73;58.62
69009;SHT31;56065;52.472;13.380;2024-02-26T09:28:34;18.15;59.27
69009;SHT31;56065;52.472;13.380;2024-02-26T09:31:04;17.99;59.76
69009;SHT31;56065;52.472;13.380;2024-02-26T09:33:29;18.01;60.08
69009;SHT31;56065;52.472;13.380;2024-02-26T09:35:55;18.42;60.21
69009;SHT31;56065;52.472;13.380;2024-02-26T09:38:20;18.87;58.79
69009;SHT31;56065;52.472;13.380;2024-02-26T09:40:45;19.54;58.16
69009;SHT31;56065;52.472;13.380;2024-02-26T09:43:14;20.09;56.83
69009;SHT31;56065;52.472;13.380;2024-02-26T09:45:40;20.95;55.20
69009;SHT31;56065;52.472;13.380;2024-02-26T09:48:08;21.76;54.53
69009;SHT31;56065;52.472;13.380;2024-02-26T09:50:33;22.00;53.41
69009;SHT31;56065;52.472;13.380;2024-02-26T09:52:59;22.31;53.13
69009;SHT31;56065;52.472;13.380;2024-02-26T09:55:28;22.31;52.81
69009;SHT31;56065;52.472;13.380;2024-02-26T09:57:53;22.38;53.45
69009;SHT31;56065;52.472;13.380;2024-02-26T10:00:21;22.66;53.22
69009;SHT31;56065;52.472;13.380;2024-02-26T10:02:47;23.18;52.52
69009;SHT31;56065;52.472;13.380;2024-02-26T10:05:16;23.04;52.24
69009;SHT31;56065;52.472;13.380;2024-02-26T10:07:44;23.61;51.60
69009;SHT31;56065;52.472;13.380;2024-02-26T10:10:09;23.84;51.45
69009;SHT31;56065;52.472;13.380;2024-02-26T10:12:34;23.65;51.38
69009;SHT31;56065;52.472;13.380;2024-02-26T10:15:00;23.58;51.00
69009;SHT31;56065;52.472;13.380;2024-02-26T10:17:26;23.65;51.39
69009;SHT31;56065;52.472;13.380;2024-02-26T10:19:52;23.84;51.19
69009;SHT31;56065;52.472;13.380;2024-02-26T10:22:22;24.19;51.43
69009;SHT31;56065;52.472;13.380;2024-02-26T10:24:47;24.43;50.80
69009;SHT31;56065;52.472;13.380;2024-02-26T10:27:12;24.43;50.61
69009;SHT31;56065;52.472;13.380;2024-02-26T10:29:38;24.46;49.92
69009;SHT31;56065;52.472;13.380;2024-02-26T10:32:04;24.84;49.76
69009;SHT31;56065;52.472;13.380;2024-02-26T10:34:29;24.61;49.23
69009;SHT31;56065;52.472;13.380;2024-02-26T10:36:56;24.49;49.11
69009;SHT31;56065;52.472;13.380;2024-02-26T10:39:21;24.91;49.24
69009;SHT31;56065;52.472;13.380;2024-02-26T10:41:46;25.19;48.78
69009;SHT31;56065;52.472;13.380;2024-02-26T10:44:12;25.14;48.46
69009;SHT31;56065;52.472;13.380;2024-02-26T10:46:39;25.08;48.66
69009;SHT31;56065;52.472;13.380;2024-02-26T10:49:05;25.08;48.23
69009;SHT31;56065;52.472;13.380;2024-02-26T10:51:34;25.05;48.00
69009;SHT31;56065;52.472;13.380;2024-02-26T10:54:02;25.11;47.52
69009;SHT31;56065;52.472;13.380;2024-02-26T10:56:30;25.31;47.64
69009;SHT31;56065;52.472;13.380;2024-02-26T10:58:59;25.72;48.29
69009;SHT31;56065;52.472;13.380;2024-02-26T11:01:25;25.21;47.09
69009;SHT31;56065;52.472;13.380;2024-02-26T11:03:52;25.24;47.68
69009;SHT31;56065;52.472;13.380;2024-02-26T11:06:19;25.31;47.61
69009;SHT31;56065;52.472;13.380;2024-02-26T11:08:48;25.25;48.59
69009;SHT31;56065;52.472;13.380;2024-02-26T11:11:14;25.19;47.72
69009;SHT31;56065;52.472;13.380;2024-02-26T11:13:42;25.26;48.22
69009;SHT31;56065;52.472;13.380;2024-02-26T11:16:11;25.73;47.49
69009;SHT31;56065;52.472;13.380;2024-02-26T11:18:38;25.67;46.57
69009;SHT31;56065;52.472;13.380;2024-02-26T11:21:05;25.25;46.64
69009;SHT31;56065;52.472;13.380;2024-02-26T11:23:33;24.71;47.31
69009;SHT31;56065;52.472;13.380;2024-02-26T11:26:02;24.37;47.74
69009;SHT31;56065;52.472;13.380;2024-02-26T11:28:29;24.37;48.82
69009;SHT31;56065;52.472;13.380;2024-02-26T11:30:57;24.57;48.98
69009;SHT31;56065;52.472;13.380;2024-02-26T11:33:24;24.94;48.43
69009;SHT31;56065;52.472;13.380;2024-02-26T11:35:50;24.84;48.02
69009;SHT31;56065;52.472;13.380;2024-02-26T11:38:20;24.80;48.11
69009;SHT31;56065;52.472;13.380;2024-02-26T11:40:49;24.35;48.46
69009;SHT31;56065;52.472;13.380;2024-02-26T11:43:15;24.32;48.65
69009;SHT31;56065;52.472;13.380;2024-02-26T11:48:12;23.82;48.69
69009;SHT31;56065;52.472;13.380;2024-02-26T11:50:49;23.90;48.53
69009;SHT31;56065;52.472;13.380;2024-02-26T11:59:10;23.53;49.51
69009;SHT31;56065;52.472;13.380;2024-02-26T12:01:48;22.87;49.40
69009;SHT31;56065;52.472;13.380;2024-02-26T12:04:25;22.73;49.71
69009;SHT31;56065;52.472;13.380;2024-02-26T12:06:53;22.73;50.26
69009;SHT31;56065;52.472;13.380;2024-02-26T12:09:36;22.90;50.35
69009;SHT31;56065;52.472;13.380;2024-02-26T12:12:09;22.79;50.16
69009;SHT31;56065;52.472;13.380;2024-02-26T12:14:40;22.66;49.27
69009;SHT31;56065;52.472;13.380;2024-02-26T12:17:07;22.52;49.68
69009;SHT31;56065;52.472;13.380;2024-02-26T12:19:35;22.55;49.58
69009;SHT31;56065;52.472;13.380;2024-02-26T12:22:02;22.89;50.20
69009;SHT31;56065;52.472;13.380;2024-02-26T12:24:27;23.17;49.26
69009;SHT31;56065;52.472;13.380;2024-02-26T12:26:53;23.53;48.48
69009;SHT31;56065;52.472;13.380;2024-02-26T12:29:18;23.75;48.84
69009;SHT31;56065;52.472;13.380;2024-02-26T12:31:43;23.76;48.48
69009;SHT31;56065;52.472;13.380;2024-02-26T12:34:09;23.72;47.60
69009;SHT31;56065;52.472;13.380;2024-02-26T12:36:35;23.72;47.93
69009;SHT31;56065;52.472;13.380;2024-02-26T12:39:02;23.79;48.55
69009;SHT31;56065;52.472;13.380;2024-02-26T12:41:28;23.95;48.77
69009;SHT31;56065;52.472;13.380;2024-02-26T12:43:55;24.30;47.85
69009;SHT31;56065;52.472;13.380;2024-02-26T12:46:21;24.16;47.07
69009;SHT31;56065;52.472;13.380;2024-02-26T12:48:47;24.17;47.55
69009;SHT31;56065;52.472;13.380;2024-02-26T12:51:14;23.75;47.34
69009;SHT31;56065;52.472;13.380;2024-02-26T12:53:40;23.98;47.40
69009;SHT31;56065;52.472;13.380;2024-02-26T12:56:08;23.72;47.79
69009;SHT31;56065;52.472;13.380;2024-02-26T12:58:34;23.74;48.59
69009;SHT31;56065;52.472;13.380;2024-02-26T13:01:01;23.51;48.49
69009;SHT31;56065;52.472;13.380;2024-02-26T13:03:27;23.37;48.81
69009;SHT31;56065;52.472;13.380;2024-02-26T13:05:53;23.18;48.76
69009;SHT31;56065;52.472;13.380;2024-02-26T13:08:22;22.85;49.14
69009;SHT31;56065;52.472;13.380;2024-02-26T13:10:48;22.42;49.88
69009;SHT31;56065;52.472;13.380;2024-02-26T13:13:17;22.02;49.92
69009;SHT31;56065;52.472;13.380;2024-02-26T13:15:46;21.71;50.83
69009;SHT31;56065;52.472;13.380;2024-02-26T13:18:13;21.35;51.39
69009;SHT31;56065;52.472;13.380;2024-02-26T13:20:38;21.18;52.31
69009;SHT31;56065;52.472;13.380;2024-02-26T13:23:09;21.06;52.08
69009;SHT31;56065;52.472;13.380;2024-02-26T13:25:36;20.67;52.70
69009;SHT31;56065;52.472;13.380;2024-02-26T13:28:24;20.14;52.46
69009;SHT31;56065;52.472;13.380;2024-02-26T13:30:54;19.94;52.03
69009;SHT31;56065;52.472;13.380;2024-02-26T13:33:22;19.94;52.60
69009;SHT31;56065;52.472;13.380;2024-02-26T13:35:47;19.83;52.67
69009;SHT31;56065;52.472;13.380;2024-02-26T13:38:12;19.54;53.26
69009;SHT31;56065;52.472;13.380;2024-02-26T13:40:38;19.25;53.31
69009;SHT31;56065;52.472;13.380;2024-02-26T13:43:04;19.00;53.56
69009;SHT31;56065;52.472;13.380;2024-02-26T13:45:30;18.98;53.69
69009;SHT31;56065;52.472;13.380;2024-02-26T13:48:01;18.91;53.56
69009;SHT31;56065;52.472;13.380;2024-02-26T13:50:27;18.64;53.50
69009;SHT31;56065;52.472;13.380;2024-02-26T13:52:52;18.30;54.38
69009;SHT31;56065;52.472;13.380;2024-02-26T13:55:19;18.09;53.82
69009;SHT31;56065;52.472;13.380;2024-02-26T13:57:45;17.96;54.66
69009;SHT31;56065;52.472;13.380;2024-02-26T14:00:11;17.81;55.94
69009;SHT31;56065;52.472;13.380;2024-02-26T14:02:37;17.81;55.47
69009;SHT31;56065;52.472;13.380;2024-02-26T14:05:03;17.77;55.64
69009;SHT31;56065;52.472;13.380;2024-02-26T14:07:29;17.60;56.60
69009;SHT31;56065;52.472;13.380;2024-02-26T14:09:57;17.61;56.34
69009;SHT31;56065;52.472;13.380;2024-02-26T14:12:23;17.48;55.96
69009;SHT31;56065;52.472;13.380;2024-02-26T14:14:48;17.53;56.42
69009;SHT31;56065;52.472;13.380;2024-02-26T14:17:14;17.45;56.90
69009;SHT31;56065;52.472;13.380;2024-02-26T14:19:40;17.41;57.07
69009;SHT31;56065;52.472;13.380;2024-02-26T14:22:11;17.38;57.51
69009;SHT31;56065;52.472;13.380;2024-02-26T14:24:36;17.37;57.01
69009;SHT31;56065;52.472;13.380;2024-02-26T14:27:02;17.24;56.82
69009;SHT31;56065;52.472;13.380;2024-02-26T14:29:28;17.19;57.08
69009;SHT31;56065;52.472;13.380;2024-02-26T14:31:53;17.17;57.40
69009;SHT31;56065;52.472;13.380;2024-02-26T14:34:18;16.99;58.08
69009;SHT31;56065;52.472;13.380;2024-02-26T14:36:44;16.93;57.83
69009;SHT31;56065;52.472;13.380;2024-02-26T14:39:09;16.75;58.66
69009;SHT31;56065;52.472;13.380;2024-02-26T14:41:38;16.59;59.00
69009;SHT31;56065;52.472;13.380;2024-02-26T14:44:03;16.49;58.89
69009;SHT31;56065;52.472;13.380;2024-02-26T14:46:29;16.31;59.79
69009;SHT31;56065;52.472;13.380;2024-02-26T14:48:54;16.25;60.19
69009;SHT31;56065;52.472;13.380;2024-02-26T14:51:22;16.03;59.97
69009;SHT31;56065;52.472;13.380;2024-02-26T14:53:47;15.98;60.05
69009;SHT31;56065;52.472;13.380;2024-02-26T14:56:13;15.91;60.46
69009;SHT31;56065;52.472;13.380;2024-02-26T14:58:38;15.91;60.25
69009;SHT31;56065;52.472;13.380;2024-02-26T15:01:03;15.82;60.44
69009;SHT31;56065;52.472;13.380;2024-02-26T15:03:29;15.70;60.87
69009;SHT31;56065;52.472;13.380;2024-02-26T15:05:54;15.55;61.25
69009;SHT31;56065;52.472;13.380;2024-02-26T15:08:19;15.49;61.58
69009;SHT31;56065;52.472;13.380;2024-02-26T15:10:45;15.43;61.50
69009;SHT31;56065;52.472;13.380;2024-02-26T15:13:14;15.22;62.29
69009;SHT31;56065;52.472;13.380;2024-02-26T15:15:40;15.19;61.77
69009;SHT31;56065;52.472;13.380;2024-02-26T15:18:06;15.12;61.84
69009;SHT31;56065;52.472;13.380;2024-02-26T15:20:32;15.06;62.15
69009;SHT31;56065;52.472;13.380;2024-02-26T15:22:57;14.89;62.56
69009;SHT31;56065;52.472;13.380;2024-02-26T15:25:23;14.85;62.60